createdAt,value
2022-09-13T00:01:19.040Z,5.82
2022-09-13T00:04:04.705Z,6.40
2022-09-13T00:06:50.084Z,5.60
2022-09-13T00:09:37.151Z,5.70
2022-09-13T00:12:22.792Z,7.50
2022-09-13T00:15:08.906Z,4.32
2022-09-13T00:17:54.442Z,4.03
2022-09-13T00:20:39.740Z,7.85
2022-09-13T00:23:25.246Z,7.53
2022-09-13T00:26:14.225Z,3.83
2022-09-13T00:28:59.663Z,4.55
2022-09-13T00:31:45.292Z,4.78
2022-09-13T00:34:30.887Z,6.95
2022-09-13T00:37:16.210Z,9.07
2022-09-13T00:40:02.664Z,10.63
2022-09-13T00:42:48.101Z,8.38
2022-09-13T00:45:33.798Z,6.60
2022-09-13T00:48:22.619Z,8.73
2022-09-13T00:51:10.546Z,8.80
2022-09-13T00:53:59.597Z,9.98
2022-09-13T00:56:50.866Z,10.55
2022-09-13T00:59:42.888Z,9.50
2022-09-13T01:02:29.013Z,7.93
2022-09-13T01:05:16.613Z,9.75
2022-09-13T01:08:02.707Z,7.95
2022-09-13T01:10:50.982Z,8.77
2022-09-13T01:13:36.698Z,7.30
2022-09-13T01:16:22.358Z,8.43
2022-09-13T01:19:08.892Z,8.88
2022-09-13T01:22:13.604Z,8.90
2022-09-13T01:25:01.487Z,9.85
2022-09-13T01:28:14.703Z,7.97
2022-09-13T01:34:51.960Z,7.68
2022-09-13T01:38:19.018Z,5.60
2022-09-13T01:41:20.334Z,9.48
2022-09-13T01:44:38.918Z,9.27
2022-09-13T01:47:46.173Z,12.55
2022-09-13T01:50:43.337Z,9.07
2022-09-13T01:54:07.016Z,8.20
2022-09-13T01:57:01.367Z,11.60
2022-09-13T01:59:49.906Z,8.18
2022-09-13T02:03:07.155Z,8.98
2022-09-13T02:05:58.181Z,8.50
2022-09-13T02:08:49.359Z,11.13
2022-09-13T02:11:39.070Z,13.63
2022-09-13T02:14:46.531Z,8.45
2022-09-13T02:17:38.804Z,8.75
2022-09-13T02:20:34.949Z,12.85
2022-09-13T02:23:26.813Z,9.65
2022-09-13T02:26:15.531Z,13.52
2022-09-13T02:29:06.761Z,10.68
2022-09-13T02:32:06.470Z,12.35
2022-09-13T02:34:57.431Z,9.93
2022-09-13T02:37:46.542Z,10.07
2022-09-13T02:40:43.387Z,9.98
2022-09-13T02:43:37.941Z,11.57
2022-09-13T02:46:38.515Z,11.77
2022-09-13T02:49:31.791Z,11.88
2022-09-13T02:52:42.251Z,9.80
2022-09-13T02:55:51.448Z,11.68
2022-09-13T02:58:42.959Z,16.17
2022-09-13T03:01:28.548Z,14.13
2022-09-13T03:04:14.543Z,16.35
2022-09-13T03:07:00.334Z,11.48
2022-09-13T03:09:55.710Z,17.90
2022-09-13T03:13:02.438Z,10.65
2022-09-13T03:16:02.714Z,14.00
2022-09-13T03:19:06.341Z,14.90
2022-09-13T03:22:17.536Z,16.88
2022-09-13T03:25:05.454Z,14.48
2022-09-13T03:27:53.410Z,15.07
2022-09-13T03:30:44.694Z,13.50
2022-09-13T03:34:05.528Z,11.38
2022-09-13T03:37:08.283Z,12.65
2022-09-13T03:40:08.192Z,14.80
2022-09-13T03:43:02.556Z,12.90
2022-09-13T03:45:55.839Z,14.88
2022-09-13T03:48:43.061Z,14.35
2022-09-13T03:51:28.980Z,12.93
2022-09-13T03:54:31.485Z,10.73
2022-09-13T03:57:22.129Z,12.88
2022-09-13T04:00:07.751Z,12.88
2022-09-13T04:02:54.550Z,9.63
2022-09-13T04:05:40.097Z,12.07
2022-09-13T04:08:25.298Z,12.00
2022-09-13T04:11:11.491Z,13.18
2022-09-13T04:13:56.874Z,12.18
2022-09-13T04:16:42.401Z,10.73
2022-09-13T04:19:27.721Z,10.27
2022-09-13T04:22:13.898Z,12.43
2022-09-13T04:25:02.328Z,11.55
2022-09-13T04:27:49.496Z,10.90
2022-09-13T04:30:34.978Z,12.60
2022-09-13T04:33:20.459Z,9.95
2022-09-13T04:36:06.063Z,12.20
2022-09-13T04:38:51.344Z,10.07
2022-09-13T04:41:36.988Z,11.35
2022-09-13T04:44:24.166Z,10.70
2022-09-13T04:47:09.778Z,12.00
2022-09-13T04:49:55.282Z,11.75
2022-09-13T04:52:40.974Z,10.55
2022-09-13T04:55:26.539Z,13.18
2022-09-13T04:58:11.970Z,9.88
2022-09-13T05:01:05.839Z,10.73
2022-09-13T05:03:55.369Z,13.05
2022-09-13T05:06:40.780Z,10.13
2022-09-13T05:09:26.464Z,11.05
2022-09-13T05:12:11.923Z,11.50
2022-09-13T05:14:57.294Z,11.18
2022-09-13T05:17:42.886Z,11.35
2022-09-13T05:20:28.199Z,11.68
2022-09-13T05:23:13.489Z,11.73
2022-09-13T05:26:04.519Z,10.18
2022-09-13T05:28:50.282Z,12.90
2022-09-13T05:31:39.376Z,10.73
2022-09-13T05:34:24.874Z,9.73
2022-09-13T05:37:10.156Z,9.77
2022-09-13T05:40:12.535Z,13.45
2022-09-13T05:42:58.402Z,10.25
2022-09-13T05:45:43.763Z,12.10
2022-09-13T05:48:30.235Z,10.85
2022-09-13T05:51:16.968Z,10.98
2022-09-13T05:54:02.487Z,11.00
2022-09-13T05:56:47.903Z,10.98
2022-09-13T05:59:33.627Z,11.27
2022-09-13T06:02:19.034Z,12.52
2022-09-13T06:05:04.607Z,9.90
2022-09-13T06:07:50.315Z,9.23
2022-09-13T06:10:35.760Z,11.80
2022-09-13T06:13:21.785Z,11.93
2022-09-13T06:16:09.727Z,12.32
2022-09-13T06:18:55.222Z,10.93
2022-09-13T06:21:42.081Z,14.05
2022-09-13T06:24:27.735Z,12.18
2022-09-13T06:27:13.232Z,11.43
2022-09-13T06:29:58.603Z,13.68
2022-09-13T06:32:44.024Z,12.57
2022-09-13T06:35:29.515Z,12.80
2022-09-13T06:38:14.906Z,12.13
2022-09-13T06:41:27.350Z,12.70
2022-09-13T06:44:13.045Z,14.65
2022-09-13T06:46:58.709Z,11.85
2022-09-13T06:49:44.201Z,13.27
2022-09-13T06:52:29.462Z,11.75
2022-09-13T06:55:15.134Z,13.70
2022-09-13T06:58:00.576Z,11.48
2022-09-13T07:00:46.192Z,11.52
2022-09-13T07:03:31.713Z,13.18
2022-09-13T07:06:22.651Z,13.68
2022-09-13T07:09:12.027Z,11.45
2022-09-13T07:11:57.719Z,13.27
2022-09-13T07:14:42.909Z,11.73
2022-09-13T07:17:31.447Z,14.45
2022-09-13T07:20:17.407Z,13.80
2022-09-13T07:23:02.443Z,12.27
2022-09-13T07:25:54.966Z,14.13
2022-09-13T07:28:42.745Z,11.90
2022-09-13T07:31:37.263Z,8.55
2022-09-13T07:34:24.282Z,10.05
2022-09-13T07:37:09.585Z,8.85
2022-09-13T07:39:54.956Z,9.82
2022-09-13T07:42:40.554Z,8.07
2022-09-13T07:45:25.888Z,9.20
2022-09-13T07:48:11.447Z,7.35
2022-09-13T07:51:01.909Z,7.72
2022-09-13T07:53:52.612Z,6.03
2022-09-13T07:56:42.504Z,6.55
2022-09-13T07:59:30.168Z,8.45
2022-09-13T08:02:18.027Z,7.95
2022-09-13T08:05:03.998Z,7.20
2022-09-13T08:07:49.094Z,8.63
2022-09-13T08:10:35.372Z,7.43
2022-09-13T08:13:21.185Z,8.98
2022-09-13T08:16:07.142Z,6.70
2022-09-13T08:18:55.508Z,7.95
2022-09-13T08:21:42.457Z,7.18
2022-09-13T08:24:28.448Z,9.80
2022-09-13T08:27:13.880Z,7.28
2022-09-13T08:29:59.183Z,8.75
2022-09-13T08:32:44.760Z,10.65
2022-09-13T08:35:32.952Z,11.23
2022-09-13T08:38:19.045Z,7.72
2022-09-13T08:41:24.928Z,10.93
2022-09-13T08:44:30.181Z,10.15
2022-09-13T08:47:32.178Z,11.65
2022-09-13T08:50:34.834Z,9.75
2022-09-13T08:53:29.239Z,10.80
2022-09-13T08:56:23.662Z,8.80
2022-09-13T08:59:54.605Z,9.07
2022-09-13T09:03:03.782Z,12.95
2022-09-13T09:05:52.307Z,11.85
2022-09-13T09:08:46.899Z,13.38
2022-09-13T09:11:47.751Z,14.50
2022-09-13T09:14:44.339Z,12.90
2022-09-13T09:17:44.600Z,17.00
2022-09-13T09:20:51.272Z,14.85
2022-09-13T09:23:55.822Z,23.58
2022-09-13T09:26:40.820Z,17.45
2022-09-13T09:29:29.699Z,17.05
2022-09-13T09:33:03.684Z,14.93
2022-09-13T09:36:17.522Z,14.77
2022-09-13T09:39:05.478Z,15.15
2022-09-13T09:41:50.673Z,13.45
2022-09-13T09:44:38.978Z,13.73
2022-09-13T09:47:29.616Z,15.55
2022-09-13T09:50:23.158Z,13.38
2022-09-13T09:53:17.064Z,12.23
2022-09-13T09:56:10.290Z,11.98
2022-09-13T09:58:55.954Z,14.95
2022-09-13T10:01:46.852Z,13.05
2022-09-13T10:04:32.444Z,14.52
2022-09-13T10:07:32.776Z,14.05
2022-09-13T10:10:34.738Z,12.05
2022-09-13T10:13:22.494Z,13.95
2022-09-13T10:16:28.253Z,10.52
2022-09-13T10:19:26.636Z,13.40
2022-09-13T10:22:13.400Z,11.15
2022-09-13T10:25:31.890Z,12.95
2022-09-13T10:28:19.689Z,14.60
2022-09-13T10:31:17.121Z,10.45
2022-09-13T10:34:17.523Z,11.80
2022-09-13T10:37:06.521Z,12.73
2022-09-13T10:40:17.915Z,14.63
2022-09-13T10:43:13.685Z,17.35
2022-09-13T10:46:02.576Z,14.75
2022-09-13T10:48:58.543Z,18.60
2022-09-13T10:51:44.060Z,14.35
2022-09-13T10:54:29.703Z,14.18
2022-09-13T10:57:36.293Z,11.82
2022-09-13T11:00:38.554Z,13.82
2022-09-13T11:03:46.654Z,12.52
2022-09-13T11:07:06.607Z,15.23
2022-09-13T11:10:05.698Z,11.98
2022-09-13T11:13:02.967Z,14.95
2022-09-13T11:16:03.737Z,12.73
2022-09-13T11:19:07.458Z,15.55
2022-09-13T11:25:18.697Z,14.57
2022-09-13T11:28:26.050Z,14.57
2022-09-13T11:31:49.316Z,14.98
2022-09-13T11:34:56.375Z,13.38
2022-09-13T11:37:51.821Z,19.23
2022-09-13T11:41:09.872Z,13.60
2022-09-13T11:44:17.459Z,17.17
2022-09-13T11:47:14.317Z,19.20
2022-09-13T11:50:25.005Z,15.30
2022-09-13T11:53:50.452Z,17.48
2022-09-13T11:56:38.410Z,20.25
2022-09-13T11:59:34.700Z,15.82
2022-09-13T12:02:32.022Z,17.50
2022-09-13T12:05:24.153Z,14.25
2022-09-13T12:08:10.120Z,17.95
2022-09-13T12:11:23.893Z,16.60
2022-09-13T12:14:23.305Z,15.23
2022-09-13T12:17:28.176Z,19.30
2022-09-13T12:20:42.219Z,17.67
2022-09-13T12:23:33.718Z,16.63
2022-09-13T12:26:30.595Z,17.45
2022-09-13T12:29:22.537Z,21.08
2022-09-13T12:32:10.154Z,14.23
2022-09-13T12:35:05.541Z,13.63
2022-09-13T12:38:29.446Z,15.82
2022-09-13T12:41:37.333Z,16.00
2022-09-13T12:44:47.370Z,16.80
2022-09-13T12:48:02.086Z,18.80
2022-09-13T12:51:19.454Z,15.43
2022-09-13T12:54:23.406Z,13.00
2022-09-13T12:57:44.031Z,13.85
2022-09-13T13:00:42.695Z,12.07
2022-09-13T13:03:33.301Z,16.70
2022-09-13T13:06:35.408Z,14.93
2022-09-13T13:09:28.487Z,12.05
2022-09-13T13:12:40.876Z,13.75
2022-09-13T13:15:26.071Z,13.73
2022-09-13T13:18:30.870Z,16.15
2022-09-13T13:21:31.301Z,13.15
2022-09-13T13:24:16.832Z,13.40
2022-09-13T13:27:20.347Z,13.15
2022-09-13T13:30:42.641Z,15.30
2022-09-13T13:33:29.513Z,14.95
2022-09-13T13:36:42.607Z,12.85
2022-09-13T13:39:27.965Z,12.75
2022-09-13T13:42:15.992Z,16.50
2022-09-13T13:45:01.083Z,14.38
2022-09-13T13:47:55.919Z,11.15
2022-09-13T13:51:16.570Z,11.13
2022-09-13T13:54:29.851Z,10.02
2022-09-13T13:57:29.815Z,9.90
2022-09-13T14:00:22.639Z,8.57
2022-09-13T14:03:36.534Z,7.30
2022-09-13T14:06:37.897Z,6.00
2022-09-13T14:09:33.155Z,5.80
2022-09-13T14:12:57.707Z,8.65
2022-09-13T14:16:11.215Z,8.60
2022-09-13T14:19:11.711Z,9.23
2022-09-13T14:22:18.286Z,5.90
2022-09-13T14:25:16.654Z,8.00
2022-09-13T14:28:02.549Z,8.10
2022-09-13T14:30:48.201Z,9.13
2022-09-13T14:33:37.383Z,10.57
2022-09-13T14:36:23.237Z,8.65
2022-09-13T14:39:09.541Z,5.85
2022-09-13T14:42:15.438Z,8.75
2022-09-13T14:45:00.770Z,6.95
2022-09-13T14:48:04.785Z,6.30
2022-09-13T14:51:08.851Z,7.78
2022-09-13T14:54:04.799Z,6.30
2022-09-13T14:56:53.834Z,6.90
2022-09-13T14:59:47.813Z,6.68
2022-09-13T15:02:38.957Z,10.80
2022-09-13T15:05:29.698Z,6.88
2022-09-13T15:08:46.290Z,6.63
2022-09-13T15:11:37.685Z,3.35
2022-09-13T15:14:32.395Z,7.15
2022-09-13T15:17:17.674Z,4.68
2022-09-13T15:20:12.941Z,4.15
2022-09-13T15:22:58.463Z,6.68
2022-09-13T15:25:51.410Z,3.97
2022-09-13T15:29:00.497Z,8.20
2022-09-13T15:31:45.878Z,3.53
2022-09-13T15:34:31.624Z,4.75
2022-09-13T15:37:17.244Z,5.15
2022-09-13T15:40:19.644Z,2.33
2022-09-13T15:43:05.091Z,4.20
2022-09-13T15:45:50.530Z,5.32
2022-09-13T15:48:36.799Z,4.20
2022-09-13T15:51:23.128Z,2.65
2022-09-13T15:54:17.259Z,8.18
2022-09-13T15:57:06.160Z,3.92
2022-09-13T15:59:51.681Z,5.13
2022-09-13T16:02:37.224Z,2.97
2022-09-13T16:05:22.970Z,4.55
2022-09-13T16:08:11.316Z,7.07
2022-09-13T16:10:56.585Z,4.72
2022-09-13T16:13:41.999Z,5.78
2022-09-13T16:16:27.788Z,5.53
2022-09-13T16:19:20.172Z,9.35
2022-09-13T16:22:07.822Z,8.60
2022-09-13T16:24:55.939Z,7.18
2022-09-13T16:27:42.866Z,7.53
2022-09-13T16:30:30.568Z,11.05
2022-09-13T16:33:16.151Z,5.65
2022-09-13T16:36:02.538Z,10.63
2022-09-13T16:38:48.322Z,5.35
2022-09-13T16:41:34.000Z,5.07
2022-09-13T16:44:19.494Z,5.88
2022-09-13T16:47:04.841Z,7.57
2022-09-13T16:49:50.206Z,8.63
2022-09-13T16:52:37.331Z,6.78
2022-09-13T16:55:24.263Z,5.95
2022-09-13T16:58:10.053Z,6.90
2022-09-13T17:00:55.663Z,8.60
2022-09-13T17:03:41.307Z,10.05
2022-09-13T17:06:27.645Z,5.22
2022-09-13T17:09:13.627Z,7.43
2022-09-13T17:11:59.167Z,5.40
2022-09-13T17:14:47.451Z,6.57
2022-09-13T17:17:36.205Z,7.88
2022-09-13T17:20:22.623Z,6.82
2022-09-13T17:23:07.768Z,6.38
2022-09-13T17:25:53.349Z,7.40
2022-09-13T17:28:38.873Z,8.32
2022-09-13T17:31:24.736Z,12.05
2022-09-13T17:34:11.233Z,7.10
2022-09-13T17:36:57.158Z,8.15
2022-09-13T17:39:42.436Z,10.68
2022-09-13T17:42:27.993Z,6.53
2022-09-13T17:45:13.807Z,9.88
2022-09-13T17:47:59.404Z,10.02
2022-09-13T17:50:45.023Z,6.22
2022-09-13T17:53:31.175Z,6.47
2022-09-13T17:56:18.960Z,10.98
2022-09-13T17:59:10.221Z,16.15
2022-09-13T18:01:57.915Z,7.28
2022-09-13T18:04:43.658Z,6.70
2022-09-13T18:07:29.193Z,10.30
2022-09-13T18:10:38.726Z,9.82
2022-09-13T18:13:20.693Z,6.70
2022-09-13T18:16:18.577Z,11.25
2022-09-13T18:19:06.461Z,10.45
2022-09-13T18:21:51.949Z,7.97
2022-09-13T18:24:37.720Z,9.35
2022-09-13T18:27:23.450Z,13.48
2022-09-13T18:30:09.083Z,8.85
2022-09-13T18:32:54.942Z,10.10
2022-09-13T18:35:40.230Z,10.02
2022-09-13T18:38:26.713Z,9.02
2022-09-13T18:41:13.092Z,12.27
2022-09-13T18:43:59.796Z,12.80
2022-09-13T18:46:46.634Z,11.93
2022-09-13T18:49:32.038Z,10.07
2022-09-13T18:52:17.748Z,7.03
2022-09-13T18:55:03.313Z,11.40
2022-09-13T18:57:48.775Z,9.57
2022-09-13T19:00:34.268Z,10.88
2022-09-13T19:03:19.985Z,9.73
2022-09-13T19:06:13.574Z,16.10
2022-09-13T19:08:59.739Z,10.40
2022-09-13T19:11:48.734Z,12.57
2022-09-13T19:14:35.199Z,18.52
2022-09-13T19:17:20.684Z,14.07
2022-09-13T19:20:06.934Z,17.65
2022-09-13T19:22:52.359Z,9.52
2022-09-13T19:25:37.764Z,12.57
2022-09-13T19:28:23.206Z,14.02
2022-09-13T19:31:11.238Z,15.15
2022-09-13T19:33:58.041Z,9.20
2022-09-13T19:36:44.323Z,6.93
2022-09-13T19:39:30.682Z,7.00
2022-09-13T19:42:16.166Z,8.70
2022-09-13T19:45:01.816Z,11.43
2022-09-13T19:48:36.926Z,7.40
2022-09-13T19:50:53.533Z,10.32
2022-09-13T19:53:55.907Z,13.45
2022-09-13T19:56:43.551Z,7.97
2022-09-13T19:59:31.532Z,10.55
2022-09-13T20:02:17.203Z,13.02
2022-09-13T20:05:02.658Z,5.60
2022-09-13T20:07:48.400Z,5.90
2022-09-13T20:10:36.989Z,6.80
2022-09-13T20:13:24.044Z,8.15
2022-09-13T20:16:15.661Z,9.80
2022-09-13T20:19:10.602Z,12.45
2022-09-13T20:22:04.684Z,6.20
2022-09-13T20:24:50.306Z,11.35
2022-09-13T20:27:38.662Z,12.93
2022-09-13T20:30:24.155Z,10.27
2022-09-13T20:33:12.773Z,14.45
2022-09-13T20:36:03.056Z,13.80
2022-09-13T20:38:49.497Z,7.45
2022-09-13T20:41:34.911Z,8.75
2022-09-13T20:44:20.170Z,10.80
2022-09-13T20:47:05.564Z,9.65
2022-09-13T20:49:51.096Z,9.15
2022-09-13T20:52:36.528Z,6.63
2022-09-13T20:55:22.025Z,6.35
2022-09-13T20:58:07.579Z,5.85
2022-09-13T21:00:53.206Z,6.95
2022-09-13T21:03:41.049Z,17.40
2022-09-13T21:06:29.067Z,9.48
2022-09-13T21:09:14.393Z,6.07
2022-09-13T21:12:01.266Z,9.82
2022-09-13T21:14:47.005Z,7.57
2022-09-13T21:17:32.699Z,8.75
2022-09-13T21:20:17.965Z,7.63
2022-09-13T21:23:03.405Z,8.52
2022-09-13T21:25:49.888Z,8.70
2022-09-13T21:28:35.903Z,11.65
2022-09-13T21:31:25.090Z,9.95
2022-09-13T21:34:16.061Z,15.23
2022-09-13T21:37:01.650Z,10.43
2022-09-13T21:39:46.752Z,11.75
2022-09-13T21:42:33.065Z,10.88
2022-09-13T21:45:18.183Z,18.17
2022-09-13T21:48:03.828Z,17.65
2022-09-13T21:50:49.028Z,14.15
2022-09-13T21:53:36.200Z,14.05
2022-09-13T21:56:23.001Z,9.98
2022-09-13T21:59:12.814Z,11.85
2022-09-13T22:01:58.230Z,12.82
2022-09-13T22:04:43.864Z,10.68
2022-09-13T22:07:29.468Z,10.30
2022-09-13T22:10:15.128Z,11.02
2022-09-13T22:13:01.063Z,10.15
2022-09-13T22:15:47.501Z,11.85
2022-09-13T22:18:34.661Z,19.00
2022-09-13T22:21:23.213Z,12.43
2022-09-13T22:24:12.594Z,9.88
2022-09-13T22:26:59.542Z,11.23
2022-09-13T22:29:44.983Z,13.13
2022-09-13T22:32:30.790Z,13.63
2022-09-13T22:35:16.291Z,13.40
2022-09-13T22:38:04.929Z,11.98
2022-09-13T22:40:58.552Z,13.80
2022-09-13T22:43:44.956Z,12.70
2022-09-13T22:46:36.549Z,13.00
2022-09-13T22:49:22.386Z,14.18
2022-09-13T22:52:08.002Z,17.52
2022-09-13T22:54:53.663Z,16.15
2022-09-13T22:57:39.231Z,12.57
2022-09-13T23:00:24.685Z,15.82
2022-09-13T23:03:10.921Z,16.17
2022-09-13T23:05:56.410Z,16.25
2022-09-13T23:08:42.173Z,17.48
2022-09-13T23:11:29.031Z,15.88
2022-09-13T23:14:17.288Z,11.23
2022-09-13T23:17:03.620Z,16.23
2022-09-13T23:19:49.013Z,14.70
2022-09-13T23:22:34.653Z,14.38
2022-09-13T23:25:19.795Z,16.02
2022-09-13T23:28:05.511Z,16.17
2022-09-13T23:30:50.765Z,11.55
2022-09-13T23:33:42.033Z,13.27
2022-09-13T23:36:29.748Z,14.50
2022-09-13T23:39:18.270Z,15.45
2022-09-13T23:42:04.330Z,13.25
2022-09-13T23:44:49.588Z,14.15
2022-09-13T23:47:34.939Z,13.45
2022-09-13T23:50:20.602Z,16.92
2022-09-13T23:53:06.190Z,13.18
2022-09-13T23:55:51.434Z,12.70
2022-09-13T23:58:38.185Z,10.38
